Time;durP1;ratioP1;P1;durP2;ratioP2;P2;SDS_P1;SDS_P2;PMS_P1;PMS_P2;Temp;Humidity;BMP_temperature;BMP_pressure;BME280_temperature;BME280_humidity;BME280_pressure;Samples;Min_cycle;Max_cycle;Signal;HPM_P1;HPM_P2
2023/10/04 00:01:20;;;;;;;18.33;12.97;;;17.90;99.90;;;;;;5106128;28;20759;-76
2023/10/04 00:03:47;;;;;;;18.30;12.27;;;18.00;99.90;;;;;;5106356;28;20441;-76
2023/10/04 00:06:12;;;;;;;16.30;11.30;;;18.00;99.90;;;;;;5105861;28;20428;-77
2023/10/04 00:08:38;;;;;;;17.40;12.70;;;18.00;99.90;;;;;;5106276;28;20462;-81
2023/10/04 00:11:04;;;;;;;15.47;10.40;;;18.10;99.90;;;;;;5104509;28;20269;-76
2023/10/04 00:13:30;;;;;;;19.30;12.90;;;18.00;99.90;;;;;;5106211;28;20171;-76
2023/10/04 00:15:56;;;;;;;16.37;11.17;;;18.00;99.90;;;;;;5109861;28;20424;-76
2023/10/04 00:18:22;;;;;;;16.40;11.80;;;18.00;99.90;;;;;;5109659;28;20413;-80
2023/10/04 00:20:48;;;;;;;18.10;11.60;;;18.00;99.90;;;;;;5108375;28;20311;-81
2023/10/04 00:23:14;;;;;;;20.17;12.20;;;18.00;99.90;;;;;;5109693;28;20510;-80
2023/10/04 00:25:40;;;;;;;14.40;10.90;;;17.90;99.90;;;;;;5109549;28;20689;-77
2023/10/04 00:28:07;;;;;;;16.73;12.00;;;17.90;99.90;;;;;;5109777;28;20168;-76
2023/10/04 00:30:33;;;;;;;16.53;11.90;;;17.80;99.90;;;;;;5108225;28;20945;-81
2023/10/04 00:33:02;;;;;;;15.07;11.90;;;17.80;99.90;;;;;;5108195;28;20416;-76
2023/10/04 00:35:28;;;;;;;19.47;12.97;;;17.80;99.90;;;;;;5109778;28;20428;-76
2023/10/04 00:37:57;;;;;;;19.00;13.17;;;17.70;99.90;;;;;;5109124;28;20836;-81
2023/10/04 00:40:28;;;;;;;14.17;11.60;;;17.60;99.90;;;;;;5107866;28;20475;-81
2023/10/04 00:43:01;;;;;;;18.43;13.40;;;17.60;99.90;;;;;;5109628;28;20793;-81
2023/10/04 00:45:33;;;;;;;20.40;12.00;;;17.60;99.90;;;;;;5107809;28;20846;-81
2023/10/04 00:48:02;;;;;;;16.90;12.53;;;17.50;99.90;;;;;;5107895;28;20827;-80
2023/10/04 00:50:32;;;;;;;20.93;14.50;;;17.50;99.90;;;;;;5106765;28;20538;-76
2023/10/04 00:53:09;;;;;;;17.20;12.50;;;17.50;99.90;;;;;;5109200;28;20412;-76
2023/10/04 00:55:43;;;;;;;17.87;12.43;;;17.50;99.90;;;;;;5107566;28;20612;-77
2023/10/04 00:58:11;;;;;;;22.00;13.00;;;17.40;99.90;;;;;;5108959;28;20765;-76
2023/10/04 01:00:41;;;;;;;22.43;12.10;;;17.40;99.90;;;;;;5109448;28;20434;-81
2023/10/04 01:03:10;;;;;;;18.90;12.47;;;17.30;99.90;;;;;;5109067;28;20512;-80
2023/10/04 01:05:51;;;;;;;18.73;13.63;;;17.30;99.90;;;;;;5107614;28;20424;-80
2023/10/04 01:08:20;;;;;;;17.93;12.27;;;17.30;99.90;;;;;;5109021;28;20481;-76
2023/10/04 01:10:47;;;;;;;18.37;12.07;;;17.20;99.90;;;;;;5108233;28;20984;-80
2023/10/04 01:13:17;;;;;;;16.60;12.27;;;17.20;99.90;;;;;;5106802;28;20450;-80
2023/10/04 01:15:43;;;;;;;17.73;13.07;;;17.10;99.90;;;;;;5108910;28;20469;-80
2023/10/04 01:18:11;;;;;;;23.70;12.07;;;17.10;99.90;;;;;;5108587;28;20412;-79
2023/10/04 01:20:38;;;;;;;17.40;13.50;;;17.10;99.90;;;;;;5108450;28;20278;-81
2023/10/04 01:23:06;;;;;;;20.97;12.70;;;17.20;99.90;;;;;;5107154;28;21054;-76
2023/10/04 01:25:37;;;;;;;15.10;11.50;;;17.20;99.90;;;;;;5108282;28;20424;-80
2023/10/04 01:28:12;;;;;;;17.53;12.20;;;17.10;99.90;;;;;;5108574;28;20416;-81
2023/10/04 01:30:40;;;;;;;24.90;13.57;;;17.10;99.90;;;;;;5107103;28;20432;-76
2023/10/04 01:33:10;;;;;;;18.17;12.00;;;17.10;99.90;;;;;;5108589;28;20575;-80
2023/10/04 01:35:36;;;;;;;19.63;13.20;;;17.10;99.90;;;;;;5108379;27;20424;-81
2023/10/04 01:38:06;;;;;;;16.60;12.10;;;17.10;99.90;;;;;;5106574;28;20464;-76
2023/10/04 01:40:32;;;;;;;16.70;12.73;;;17.00;99.90;;;;;;5106973;28;20436;-81
2023/10/04 01:42:59;;;;;;;22.27;12.50;;;17.00;99.90;;;;;;5107909;28;20491;-76
2023/10/04 01:45:25;;;;;;;21.27;12.33;;;16.90;99.90;;;;;;5108134;28;20464;-80
2023/10/04 01:47:51;;;;;;;21.10;13.10;;;16.90;99.90;;;;;;5106689;28;20686;-80
2023/10/04 01:50:17;;;;;;;18.30;12.50;;;16.90;99.90;;;;;;5107506;28;20424;-77
2023/10/04 01:52:45;;;;;;;17.63;12.43;;;16.90;99.90;;;;;;5108107;28;20238;-77
2023/10/04 01:55:12;;;;;;;19.67;12.67;;;16.90;99.90;;;;;;5106090;28;20809;-76
2023/10/04 01:57:38;;;;;;;20.40;11.80;;;16.90;99.90;;;;;;5107804;28;20432;-80
2023/10/04 02:00:06;;;;;;;18.07;11.63;;;16.90;99.90;;;;;;5106356;28;20582;-76
2023/10/04 02:02:32;;;;;;;19.27;12.93;;;16.90;99.90;;;;;;5107686;28;20838;-76
2023/10/04 02:04:59;;;;;;;15.93;11.63;;;16.90;99.90;;;;;;5107313;28;20420;-80
2023/10/04 02:07:25;;;;;;;22.53;12.57;;;16.90;99.90;;;;;;5106376;28;20168;-77
2023/10/04 02:09:53;;;;;;;19.37;11.67;;;16.90;99.90;;;;;;5108015;28;20448;-76
2023/10/04 02:12:20;;;;;;;20.87;12.93;;;16.90;99.90;;;;;;5106422;28;20436;-76
2023/10/04 02:14:47;;;;;;;19.40;13.13;;;16.90;99.90;;;;;;5107274;28;20440;-80
2023/10/04 02:17:17;;;;;;;19.20;12.10;;;16.90;99.90;;;;;;5105997;28;20889;-76
2023/10/04 02:19:43;;;;;;;15.50;11.73;;;16.90;99.90;;;;;;5106204;28;20677;-80
2023/10/04 02:22:13;;;;;;;18.43;12.07;;;16.90;99.90;;;;;;5106015;28;20464;-80
2023/10/04 02:24:39;;;;;;;18.00;11.73;;;16.90;99.90;;;;;;5105709;28;20456;-76
2023/10/04 02:27:07;;;;;;;16.70;11.83;;;16.90;99.90;;;;;;5105931;28;20412;-80
2023/10/04 02:29:34;;;;;;;17.87;13.10;;;16.90;99.90;;;;;;5105881;28;20478;-80
2023/10/04 02:32:06;;;;;;;17.33;11.17;;;16.90;99.90;;;;;;5105926;28;20452;-76
2023/10/04 02:34:32;;;;;;;16.50;12.20;;;16.90;99.90;;;;;;5105682;28;20459;-76
2023/10/04 02:36:57;;;;;;;17.87;11.80;;;16.80;99.90;;;;;;5106588;28;20870;-80
2023/10/04 02:39:24;;;;;;;16.87;11.70;;;16.90;99.90;;;;;;5105651;28;20303;-76
2023/10/04 02:41:49;;;;;;;15.83;11.70;;;16.90;99.90;;;;;;5106400;28;20287;-80
2023/10/04 02:44:17;;;;;;;19.00;12.50;;;16.90;99.90;;;;;;5107001;28;20459;-80
2023/10/04 02:46:45;;;;;;;17.40;11.37;;;17.00;99.90;;;;;;5106068;28;20621;-80
2023/10/04 02:49:10;;;;;;;24.83;12.73;;;16.90;99.90;;;;;;5105232;28;20532;-77
2023/10/04 02:51:36;;;;;;;18.00;11.67;;;16.90;99.90;;;;;;5105058;28;20892;-76
2023/10/04 02:54:04;;;;;;;17.43;11.73;;;16.90;99.90;;;;;;5106813;28;20292;-81
2023/10/04 02:56:32;;;;;;;17.70;11.37;;;16.90;99.90;;;;;;5105537;28;20183;-76
2023/10/04 02:58:58;;;;;;;20.97;14.67;;;16.90;99.90;;;;;;5106843;28;20438;-81
2023/10/04 03:01:26;;;;;;;18.17;11.77;;;16.90;99.90;;;;;;5105269;28;20463;-80
2023/10/04 03:03:52;;;;;;;19.13;13.10;;;16.90;99.90;;;;;;5106708;28;20424;-80
2023/10/04 03:06:23;;;;;;;20.13;11.00;;;16.90;99.90;;;;;;5106780;28;20431;-81
2023/10/04 03:08:51;;;;;;;18.70;12.30;;;16.90;99.90;;;;;;5106913;28;20436;-76
2023/10/04 03:11:16;;;;;;;15.00;10.70;;;16.90;99.90;;;;;;5106462;28;20420;-77
2023/10/04 03:13:42;;;;;;;16.97;10.60;;;17.00;99.90;;;;;;5105289;28;20431;-76
2023/10/04 03:16:09;;;;;;;16.20;11.17;;;17.00;99.90;;;;;;5105010;28;20523;-76
2023/10/04 03:18:37;;;;;;;19.03;11.90;;;17.00;99.90;;;;;;5105499;28;20203;-80
2023/10/04 03:21:16;;;;;;;17.40;11.00;;;17.00;99.90;;;;;;5106379;28;20873;-76
2023/10/04 03:23:42;;;;;;;13.83;9.57;;;17.00;99.90;;;;;;5106819;28;20452;-76
2023/10/04 03:26:12;;;;;;;17.90;9.90;;;17.00;99.90;;;;;;5104749;28;20917;-80
2023/10/04 03:28:37;;;;;;;20.60;11.07;;;17.00;99.90;;;;;;5106535;28;20176;-77
2023/10/04 03:31:14;;;;;;;14.40;10.60;;;17.00;99.90;;;;;;5104721;28;20432;-80
2023/10/04 03:33:45;;;;;;;20.20;11.20;;;17.10;99.90;;;;;;5106495;28;20511;-81
2023/10/04 03:36:17;;;;;;;16.80;10.97;;;17.10;99.90;;;;;;5106207;28;20781;-81
2023/10/04 03:38:43;;;;;;;19.20;11.67;;;17.10;99.90;;;;;;5105972;28;20463;-76
2023/10/04 03:41:09;;;;;;;19.23;10.60;;;17.10;99.90;;;;;;5104307;28;20497;-81
2023/10/04 03:43:35;;;;;;;13.57;10.13;;;17.00;99.90;;;;;;5104695;28;20424;-76
2023/10/04 03:46:08;;;;;;;16.50;10.70;;;17.00;99.90;;;;;;5105891;28;20192;-77
2023/10/04 03:48:37;;;;;;;17.07;9.97;;;17.00;99.90;;;;;;5105992;28;20424;-76
2023/10/04 03:51:03;;;;;;;21.93;10.90;;;17.00;99.90;;;;;;5109950;28;20426;-76
2023/10/04 03:53:29;;;;;;;16.57;9.70;;;17.00;99.90;;;;;;5108875;28;20431;-79
2023/10/04 03:55:59;;;;;;;15.50;10.80;;;17.10;99.90;;;;;;5109855;28;20422;-80
2023/10/04 03:58:25;;;;;;;15.13;10.63;;;17.10;99.90;;;;;;5108386;28;20948;-80
2023/10/04 04:00:51;;;;;;;14.33;9.30;;;17.20;99.90;;;;;;5110270;27;20428;-77
2023/10/04 04:03:18;;;;;;;14.87;9.63;;;17.20;99.90;;;;;;5108704;28;20235;-83
2023/10/04 04:05:44;;;;;;;16.33;10.47;;;17.30;99.90;;;;;;5108782;28;20481;-82
2023/10/04 04:08:12;;;;;;;13.43;8.93;;;17.30;99.90;;;;;;5108342;28;20464;-82
2023/10/04 04:10:38;;;;;;;13.37;9.70;;;17.30;99.90;;;;;;5109541;28;20428;-81
2023/10/04 04:13:06;;;;;;;15.63;10.40;;;17.40;99.90;;;;;;5109851;28;20430;-76
2023/10/04 04:15:36;;;;;;;15.50;10.47;;;17.50;99.90;;;;;;5108499;28;20446;-76
2023/10/04 04:18:06;;;;;;;13.37;9.27;;;17.50;99.90;;;;;;5108902;28;20420;-81
2023/10/04 04:20:35;;;;;;;15.00;10.20;;;17.60;99.90;;;;;;5103104;28;20454;-81
2023/10/04 04:23:03;;;;;;;13.47;9.47;;;17.70;99.90;;;;;;5095105;28;20491;-81
2023/10/04 04:25:30;;;;;;;15.73;10.23;;;17.70;99.90;;;;;;5106607;28;20988;-76
2023/10/04 04:27:56;;;;;;;13.47;10.03;;;17.80;99.90;;;;;;5089390;28;20946;-76
2023/10/04 04:30:27;;;;;;;15.63;10.10;;;17.80;99.90;;;;;;5085919;28;20425;-76
2023/10/04 04:32:56;;;;;;;13.37;8.73;;;17.90;99.90;;;;;;5087776;28;20910;-81
2023/10/04 04:38:12;;;;;;;16.10;10.00;;;18.00;99.90;;;;;;5094029;28;20452;-76
2023/10/04 04:40:39;;;;;;;9.10;7.30;;;18.10;99.90;;;;;;5089414;28;20486;-76
2023/10/04 04:45:51;;;;;;;8.80;6.33;;;18.40;99.90;;;;;;5093520;28;20528;-81
2023/10/04 04:48:24;;;;;;;10.47;6.90;;;18.50;99.90;;;;;;5094655;28;20448;-81
2023/10/04 04:50:57;;;;;;;8.07;6.20;;;18.60;99.90;;;;;;5094449;28;20554;-76
2023/10/04 04:53:24;;;;;;;8.27;5.67;;;18.70;99.90;;;;;;5094131;28;20524;-81
2023/10/04 04:55:50;;;;;;;9.20;6.67;;;18.80;99.90;;;;;;5094122;28;20439;-81
2023/10/04 04:58:23;;;;;;;8.27;5.40;;;18.90;99.90;;;;;;5098210;28;20447;-81
2023/10/04 05:00:56;;;;;;;7.20;4.80;;;19.00;99.90;;;;;;5091789;28;20451;-76
2023/10/04 05:03:26;;;;;;;8.20;5.53;;;19.10;99.90;;;;;;5105307;28;20481;-81
2023/10/04 05:05:52;;;;;;;6.83;4.57;;;19.20;99.90;;;;;;5107140;28;20435;-76
2023/10/04 05:08:18;;;;;;;5.10;4.50;;;19.30;99.90;;;;;;5108446;28;20423;-81
2023/10/04 05:10:44;;;;;;;6.67;4.77;;;19.30;99.90;;;;;;5108432;28;20980;-77
2023/10/04 05:13:13;;;;;;;6.40;4.67;;;19.40;99.90;;;;;;5102686;28;20431;-83
2023/10/04 05:15:42;;;;;;;15.23;5.40;;;19.50;99.90;;;;;;5086478;28;20468;-77
2023/10/04 05:18:15;;;;;;;15.27;4.67;;;19.60;99.90;;;;;;5087017;28;20741;-77
2023/10/04 05:20:49;;;;;;;9.00;4.90;;;19.60;99.90;;;;;;5095328;28;20512;-81
2023/10/04 05:23:15;;;;;;;4.90;3.60;;;19.70;99.90;;;;;;5099672;28;20506;-80
2023/10/04 05:25:41;;;;;;;4.27;3.77;;;19.70;99.90;;;;;;5095421;28;20463;-77
2023/10/04 05:28:11;;;;;;;8.43;4.00;;;19.80;99.90;;;;;;5094586;27;20435;-81
2023/10/04 05:30:38;;;;;;;4.03;3.63;;;19.90;99.90;;;;;;5098661;28;20215;-81
2023/10/04 05:33:07;;;;;;;4.40;3.30;;;19.90;99.90;;;;;;5085136;28;20523;-76
2023/10/04 05:35:35;;;;;;;5.53;3.93;;;19.90;99.90;;;;;;5101092;28;20501;-76
2023/10/04 05:38:11;;;;;;;5.33;4.10;;;20.00;99.90;;;;;;5100282;28;21018;-75
2023/10/04 05:40:38;;;;;;;3.57;2.77;;;20.10;99.90;;;;;;5095658;28;20448;-75
2023/10/04 05:43:06;;;;;;;5.20;3.73;;;20.10;99.90;;;;;;5087619;28;20831;-76
2023/10/04 05:45:32;;;;;;;6.43;3.50;;;20.10;99.90;;;;;;5094966;28;20451;-75
2023/10/04 05:47:59;;;;;;;7.53;3.47;;;20.10;99.90;;;;;;5084341;28;20450;-80
2023/10/04 05:50:26;;;;;;;9.80;4.13;;;20.20;99.90;;;;;;5095554;28;20472;-80
2023/10/04 05:52:53;;;;;;;4.53;2.93;;;20.20;99.90;;;;;;5085213;28;20467;-75
2023/10/04 05:55:20;;;;;;;6.80;3.80;;;20.20;99.90;;;;;;5084395;28;20868;-79
2023/10/04 05:57:50;;;;;;;391.53;197.60;;;20.30;99.90;;;;;;5093276;28;20417;-80
2023/10/04 06:00:33;;;;;;;10.03;5.97;;;20.30;99.90;;;;;;5091860;28;20593;-81
2023/10/04 06:03:18;;;;;;;6.30;3.73;;;20.40;99.90;;;;;;5093618;28;20479;-77
2023/10/04 06:05:44;;;;;;;4.80;2.80;;;20.40;99.90;;;;;;5084612;28;20697;-75
2023/10/04 06:08:15;;;;;;;3.00;2.40;;;20.40;99.90;;;;;;5084428;28;20551;-81
2023/10/04 06:10:43;;;;;;;3.93;2.30;;;20.40;99.90;;;;;;5082765;28;20649;-80
2023/10/04 06:13:11;;;;;;;3.60;2.40;;;20.50;99.90;;;;;;5094773;28;21208;-75
2023/10/04 06:15:47;;;;;;;6.67;3.00;;;20.60;99.90;;;;;;5101338;28;20970;-75
2023/10/04 06:18:16;;;;;;;3.20;2.50;;;20.60;99.90;;;;;;5101057;28;20443;-81
2023/10/04 06:20:43;;;;;;;4.53;3.20;;;20.60;99.90;;;;;;5093634;28;20439;-80
2023/10/04 06:23:10;;;;;;;5.33;2.40;;;20.70;99.90;;;;;;5079722;28;20481;-80
2023/10/04 06:25:52;;;;;;;3.70;2.30;;;20.80;99.90;;;;;;5079827;28;20535;-75
2023/10/04 06:28:19;;;;;;;4.53;2.27;;;20.80;99.90;;;;;;5079202;28;20417;-75
2023/10/04 06:30:52;;;;;;;3.93;2.30;;;20.80;99.90;;;;;;5087575;28;21062;-75
2023/10/04 06:33:18;;;;;;;2.20;2.00;;;20.90;99.90;;;;;;5082995;28;20811;-80
2023/10/04 06:35:44;;;;;;;3.73;2.00;;;20.90;99.90;;;;;;5088565;28;20436;-75
2023/10/04 06:38:13;;;;;;;2.60;2.07;;;20.90;99.90;;;;;;5090387;28;20472;-75
2023/10/04 06:40:39;;;;;;;6.97;1.97;;;20.90;99.90;;;;;;5097374;28;20916;-75
2023/10/04 06:43:08;;;;;;;5.60;2.60;;;20.90;99.90;;;;;;5085696;27;20605;-80
2023/10/04 06:45:35;;;;;;;2.40;2.00;;;20.90;99.90;;;;;;5092036;28;20521;-80
2023/10/04 06:48:02;;;;;;;4.43;2.30;;;20.90;99.90;;;;;;5086546;28;20440;-75
2023/10/04 06:50:32;;;;;;;4.90;1.80;;;21.00;99.90;;;;;;5099048;28;20448;-80
2023/10/04 06:52:58;;;;;;;3.10;2.20;;;21.00;99.90;;;;;;5091257;28;20531;-81
2023/10/04 06:55:25;;;;;;;5.53;2.20;;;21.00;99.90;;;;;;5086060;28;20555;-80
2023/10/04 06:57:51;;;;;;;4.53;3.20;;;21.10;99.90;;;;;;5084855;28;20437;-75
2023/10/04 07:00:19;;;;;;;3.53;2.30;;;21.10;99.90;;;;;;5083351;28;21030;-80
2023/10/04 07:02:54;;;;;;;3.47;2.07;;;21.10;99.90;;;;;;5091369;28;20256;-82
2023/10/04 07:05:22;;;;;;;3.30;1.67;;;21.20;99.90;;;;;;5084324;28;20440;-82
2023/10/04 07:07:51;;;;;;;3.33;2.30;;;21.20;99.90;;;;;;5095620;28;20435;-82
2023/10/04 07:10:20;;;;;;;5.20;2.00;;;21.20;99.90;;;;;;5085410;28;20528;-76
2023/10/04 07:12:47;;;;;;;2.30;1.63;;;21.20;99.90;;;;;;5101118;28;20432;-82
2023/10/04 07:15:14;;;;;;;1.70;1.60;;;21.20;99.90;;;;;;5089603;28;20965;-74
2023/10/04 07:17:40;;;;;;;5.10;1.80;;;21.20;99.90;;;;;;5089248;28;20424;-76
2023/10/04 07:20:16;;;;;;;4.23;1.90;;;21.20;99.90;;;;;;5091549;28;20760;-82
2023/10/04 07:22:43;;;;;;;3.63;1.40;;;21.20;99.90;;;;;;5090113;28;20799;-83
2023/10/04 07:25:14;;;;;;;1.90;1.53;;;21.30;99.90;;;;;;5092271;28;21161;-82
2023/10/04 07:27:42;;;;;;;4.93;1.80;;;21.30;99.90;;;;;;5089488;28;20971;-82
2023/10/04 07:30:12;;;;;;;4.73;2.40;;;21.30;99.90;;;;;;5093399;28;20435;-76
2023/10/04 07:32:42;;;;;;;3.40;1.60;;;21.30;99.90;;;;;;5093887;28;20503;-76
2023/10/04 07:35:11;;;;;;;2.60;1.60;;;21.30;99.90;;;;;;5091888;28;20968;-83
2023/10/04 07:37:37;;;;;;;2.97;1.47;;;21.50;99.90;;;;;;5093364;28;20400;-82
2023/10/04 07:40:09;;;;;;;1.93;1.60;;;21.50;99.90;;;;;;5088518;28;20864;-76
2023/10/04 07:42:38;;;;;;;2.07;1.33;;;21.60;99.90;;;;;;5091342;28;20467;-76
2023/10/04 07:45:05;;;;;;;2.93;1.10;;;21.60;99.90;;;;;;5086395;28;20838;-76
2023/10/04 07:47:34;;;;;;;5.57;1.43;;;21.70;99.90;;;;;;5088214;28;20416;-76
2023/10/04 07:50:00;;;;;;;5.93;1.40;;;21.80;99.90;;;;;;5088048;28;20852;-82
2023/10/04 07:52:25;;;;;;;5.97;2.17;;;21.90;99.90;;;;;;5089375;28;20416;-76
2023/10/04 07:54:53;;;;;;;2.87;1.43;;;22.00;99.90;;;;;;5089162;28;20537;-82
2023/10/04 07:57:19;;;;;;;2.67;1.40;;;22.20;99.90;;;;;;5090265;28;20181;-82
2023/10/04 07:59:45;;;;;;;3.33;1.43;;;22.60;99.90;;;;;;5088483;28;20476;-82
2023/10/04 08:02:11;;;;;;;1.70;1.00;;;22.90;99.90;;;;;;5098769;28;20468;-76
2023/10/04 08:04:36;;;;;;;10.10;5.67;;;23.30;99.90;;;;;;5089879;28;20242;-83
2023/10/04 08:07:02;;;;;;;3.27;2.50;;;23.60;99.90;;;;;;5088806;28;20437;-77
2023/10/04 08:09:28;;;;;;;1.87;1.27;;;24.10;99.90;;;;;;5080694;28;20760;-76
2023/10/04 08:11:53;;;;;;;3.10;1.57;;;24.60;99.90;;;;;;5089150;28;20229;-77
2023/10/04 08:14:21;;;;;;;3.27;1.47;;;25.00;99.90;;;;;;5087752;28;20292;-76
2023/10/04 08:16:49;;;;;;;4.10;1.20;;;25.30;99.90;;;;;;5088019;28;20243;-76
2023/10/04 08:19:15;;;;;;;2.20;1.20;;;25.40;99.90;;;;;;5093187;28;20571;-82
2023/10/04 08:21:41;;;;;;;3.37;1.60;;;25.60;99.90;;;;;;5088911;28;20474;-77
2023/10/04 08:24:07;;;;;;;1.70;1.23;;;25.30;99.90;;;;;;5085108;28;20493;-76
2023/10/04 08:26:33;;;;;;;1.60;1.00;;;25.00;99.90;;;;;;5084796;28;20594;-82
2023/10/04 08:28:59;;;;;;;2.47;1.47;;;24.70;99.90;;;;;;5084932;28;20461;-83
2023/10/04 08:31:25;;;;;;;4.30;1.33;;;24.50;99.90;;;;;;5086993;28;20200;-83
2023/10/04 08:33:51;;;;;;;2.43;1.47;;;24.30;99.90;;;;;;5089187;28;20482;-76
2023/10/04 08:36:17;;;;;;;3.40;1.67;;;24.20;99.90;;;;;;5087669;27;20345;-76
2023/10/04 08:38:45;;;;;;;2.67;1.27;;;24.10;99.90;;;;;;5089559;28;20227;-83
2023/10/04 08:41:12;;;;;;;2.03;1.53;;;24.00;99.90;;;;;;5091518;28;20432;-76
2023/10/04 08:43:38;;;;;;;3.97;1.23;;;23.80;99.90;;;;;;5096904;28;20491;-76
2023/10/04 08:46:08;;;;;;;1.47;1.20;;;23.60;99.90;;;;;;5090060;28;20562;-76
2023/10/04 08:48:34;;;;;;;2.07;0.80;;;23.50;99.90;;;;;;5090365;28;20438;-76
2023/10/04 08:51:02;;;;;;;2.17;1.60;;;23.40;99.90;;;;;;5092135;28;20447;-77
2023/10/04 08:53:55;;;;;;;1.90;1.23;;;23.30;99.90;;;;;;5095147;28;20187;-83
2023/10/04 08:56:24;;;;;;;3.97;1.60;;;23.20;99.90;;;;;;5092276;28;20498;-82
2023/10/04 08:58:50;;;;;;;1.90;1.27;;;23.00;99.90;;;;;;5096681;28;20432;-76
2023/10/04 09:01:19;;;;;;;2.30;1.50;;;22.80;99.90;;;;;;5089689;28;20450;-82
2023/10/04 09:03:47;;;;;;;1.97;1.20;;;22.70;99.90;;;;;;5087768;28;20434;-82
2023/10/04 09:06:16;;;;;;;2.20;1.40;;;22.70;99.90;;;;;;5089191;28;21174;-77
2023/10/04 09:08:44;;;;;;;6.03;3.60;;;22.70;99.90;;;;;;5108215;27;20442;-82
2023/10/04 09:11:15;;;;;;;3.20;1.80;;;22.60;99.90;;;;;;5085968;28;20450;-76
2023/10/04 09:13:49;;;;;;;4.47;1.90;;;22.60;99.90;;;;;;5088814;28;20427;-76
2023/10/04 09:16:26;;;;;;;1.70;1.20;;;22.50;99.90;;;;;;5093748;27;20428;-76
2023/10/04 09:19:18;;;;;;;2.83;1.63;;;22.50;99.90;;;;;;5091327;28;20538;-82
2023/10/04 09:21:45;;;;;;;1.93;1.47;;;22.50;99.90;;;;;;5098578;28;20485;-82
2023/10/04 09:24:12;;;;;;;2.53;1.27;;;22.50;99.90;;;;;;5093472;28;20870;-82
2023/10/04 09:26:49;;;;;;;2.60;1.20;;;22.50;99.90;;;;;;5099446;27;20412;-82
2023/10/04 09:29:27;;;;;;;2.60;1.40;;;22.40;99.90;;;;;;5087126;28;20434;-77
2023/10/04 09:31:53;;;;;;;3.73;1.50;;;22.30;99.90;;;;;;5102565;28;20421;-81
2023/10/04 09:34:19;;;;;;;0.83;0.73;;;22.20;99.90;;;;;;5098817;28;20519;-80
2023/10/04 09:36:45;;;;;;;2.57;1.50;;;22.20;99.90;;;;;;5085531;28;20508;-75
2023/10/04 09:39:16;;;;;;;1.67;1.50;;;22.20;99.90;;;;;;5092105;28;21047;-81
2023/10/04 09:41:44;;;;;;;2.00;1.47;;;22.30;99.90;;;;;;5098523;28;20460;-80
2023/10/04 09:44:29;;;;;;;7.30;1.60;;;22.30;99.90;;;;;;5093512;28;20436;-76
2023/10/04 09:47:02;;;;;;;1.20;1.10;;;22.40;99.90;;;;;;5089646;28;20425;-80
2023/10/04 09:49:33;;;;;;;2.63;1.20;;;22.60;99.90;;;;;;5096157;28;20512;-75
2023/10/04 09:52:00;;;;;;;1.70;1.10;;;22.80;99.90;;;;;;5095237;28;20426;-81
2023/10/04 09:54:30;;;;;;;1.83;1.23;;;22.90;99.90;;;;;;5084123;28;20465;-75
2023/10/04 09:56:57;;;;;;;3.20;1.07;;;23.00;99.90;;;;;;5101977;28;20474;-75
2023/10/04 09:59:24;;;;;;;1.90;1.20;;;23.00;99.90;;;;;;5089915;28;20529;-81
2023/10/04 10:01:55;;;;;;;1.10;0.80;;;23.10;99.90;;;;;;5094499;28;20532;-75
2023/10/04 10:04:25;;;;;;;2.80;1.40;;;23.20;99.90;;;;;;5093997;28;20438;-75
2023/10/04 10:07:21;;;;;;;1.40;0.90;;;23.20;99.90;;;;;;5101491;28;20497;-81
2023/10/04 10:10:01;;;;;;;1.63;1.17;;;23.30;99.90;;;;;;5100836;28;20457;-75
2023/10/04 10:12:32;;;;;;;1.90;1.33;;;23.30;99.90;;;;;;5097338;28;20725;-75
2023/10/04 10:15:01;;;;;;;2.20;1.10;;;23.40;99.90;;;;;;5097440;28;20451;-75
2023/10/04 10:17:31;;;;;;;1.40;1.30;;;23.50;99.90;;;;;;5091127;28;20532;-81
2023/10/04 10:20:00;;;;;;;1.70;1.27;;;23.50;99.90;;;;;;5095211;28;21238;-75
2023/10/04 10:22:26;;;;;;;8.23;4.80;;;23.60;99.90;;;;;;5094696;28;20464;-81
2023/10/04 10:24:55;;;;;;;1.77;1.10;;;23.70;99.90;;;;;;5090694;28;20455;-75
2023/10/04 10:27:22;;;;;;;3.60;1.73;;;23.70;99.90;;;;;;5095294;28;20424;-81
2023/10/04 10:29:49;;;;;;;5.00;2.10;;;23.80;99.90;;;;;;5096486;28;20558;-75
2023/10/04 10:32:20;;;;;;;1.47;1.07;;;23.70;99.90;;;;;;5084843;28;20444;-80
2023/10/04 10:34:49;;;;;;;1.33;1.23;;;23.80;99.90;;;;;;5091771;28;20522;-80
2023/10/04 10:37:19;;;;;;;2.03;1.40;;;23.80;99.90;;;;;;5092058;28;20423;-81
2023/10/04 10:39:53;;;;;;;3.00;1.87;;;23.90;99.90;;;;;;5086389;28;20478;-80
2023/10/04 10:42:20;;;;;;;2.30;1.13;;;24.00;99.90;;;;;;5090072;28;20528;-75
2023/10/04 10:44:47;;;;;;;1.67;1.27;;;24.00;99.90;;;;;;5102579;28;20463;-76
2023/10/04 10:47:22;;;;;;;1.13;1.03;;;24.10;99.90;;;;;;5094911;28;20738;-80
2023/10/04 10:50:02;;;;;;;2.07;1.60;;;24.20;99.90;;;;;;5096093;28;20796;-80
2023/10/04 10:52:38;;;;;;;1.87;1.40;;;24.20;99.90;;;;;;5099428;28;20451;-80
2023/10/04 10:55:18;;;;;;;3.30;3.03;;;24.30;99.90;;;;;;5092869;28;20460;-80
2023/10/04 10:57:47;;;;;;;2.40;1.77;;;24.30;99.90;;;;;;5085807;28;20420;-75
2023/10/04 11:02:42;;;;;;;3.57;2.23;;;24.30;99.90;;;;;;5087583;28;20475;-80
2023/10/04 11:05:09;;;;;;;2.90;1.90;;;24.30;99.90;;;;;;5089971;28;21038;-75
2023/10/04 11:07:37;;;;;;;6.27;2.50;;;24.40;99.90;;;;;;5086932;28;20975;-80
2023/10/04 11:10:05;;;;;;;2.60;2.00;;;24.40;99.90;;;;;;5090033;27;20539;-81
2023/10/04 11:12:37;;;;;;;6.00;2.23;;;24.40;99.90;;;;;;5087718;28;20884;-80
2023/10/04 11:15:08;;;;;;;2.73;1.73;;;24.50;99.90;;;;;;5089267;28;20484;-81
2023/10/04 11:17:36;;;;;;;4.40;2.23;;;24.50;99.80;;;;;;5104349;27;20598;-75
2023/10/04 11:20:21;;;;;;;4.33;3.93;;;24.50;99.90;;;;;;5091146;27;20449;-81
2023/10/04 11:22:51;;;;;;;6.93;6.07;;;24.40;99.90;;;;;;5088706;28;20479;-80
2023/10/04 11:25:18;;;;;;;3.57;2.70;;;24.50;99.90;;;;;;5092621;28;20457;-76
2023/10/04 11:27:47;;;;;;;3.53;3.23;;;24.50;99.70;;;;;;5092596;28;21135;-80
2023/10/04 11:30:14;;;;;;;3.77;2.70;;;24.50;99.80;;;;;;5092435;28;20477;-75
2023/10/04 11:32:50;;;;;;;5.50;5.00;;;24.60;99.90;;;;;;5082520;28;20462;-81
2023/10/04 11:35:18;;;;;;;5.77;5.20;;;24.60;99.90;;;;;;5093923;28;20987;-75
2023/10/04 11:37:50;;;;;;;4.70;3.40;;;24.60;99.90;;;;;;5095244;28;21104;-75
2023/10/04 11:40:27;;;;;;;3.53;2.40;;;24.70;99.80;;;;;;5080554;28;20440;-81
2023/10/04 11:43:00;;;;;;;2.67;2.27;;;24.70;99.80;;;;;;5091470;28;20921;-75
2023/10/04 11:45:27;;;;;;;3.33;2.07;;;24.70;99.90;;;;;;5089218;28;20482;-81
2023/10/04 11:48:10;;;;;;;2.27;1.97;;;24.70;99.90;;;;;;5090954;28;20508;-75
2023/10/04 11:50:47;;;;;;;4.40;2.53;;;24.60;99.90;;;;;;5093812;28;21193;-76
2023/10/04 11:53:30;;;;;;;3.20;2.27;;;24.70;99.70;;;;;;5082796;28;20436;-76
2023/10/04 11:56:00;;;;;;;5.47;3.60;;;24.70;99.70;;;;;;5085836;28;20509;-80
2023/10/04 11:58:30;;;;;;;2.97;2.50;;;24.70;99.60;;;;;;5091259;28;20428;-80
2023/10/04 12:01:06;;;;;;;4.17;2.70;;;24.70;99.70;;;;;;5085552;28;20500;-81
2023/10/04 12:03:34;;;;;;;3.33;2.30;;;24.80;99.50;;;;;;5101819;28;20475;-76
2023/10/04 12:06:00;;;;;;;2.53;2.27;;;24.80;99.50;;;;;;5091112;28;21050;-80
2023/10/04 12:08:26;;;;;;;3.57;2.30;;;24.80;99.50;;;;;;5091493;28;20631;-81
2023/10/04 12:10:51;;;;;;;5.90;3.40;;;24.80;99.60;;;;;;5089066;28;20449;-81
2023/10/04 12:13:18;;;;;;;6.27;3.70;;;24.80;99.50;;;;;;5099673;28;20188;-75
2023/10/04 12:15:45;;;;;;;5.10;3.37;;;24.90;99.70;;;;;;5085555;28;20699;-75
2023/10/04 12:18:11;;;;;;;4.70;2.57;;;24.90;99.60;;;;;;5095215;28;20448;-81
2023/10/04 12:20:36;;;;;;;2.57;2.37;;;25.00;99.40;;;;;;5090283;28;20555;-75
2023/10/04 12:23:03;;;;;;;3.83;2.23;;;25.00;99.30;;;;;;5094346;28;20564;-80
2023/10/04 12:25:28;;;;;;;2.67;2.00;;;25.00;99.30;;;;;;5100742;28;20200;-75
2023/10/04 12:27:54;;;;;;;4.73;2.97;;;25.10;99.40;;;;;;5090761;28;20442;-77
2023/10/04 12:30:21;;;;;;;5.27;3.03;;;25.10;99.30;;;;;;5078744;28;20197;-80
2023/10/04 12:32:46;;;;;;;3.00;2.13;;;25.10;99.20;;;;;;5091766;27;20432;-75
2023/10/04 12:35:13;;;;;;;5.13;2.23;;;25.10;99.20;;;;;;5094625;27;20455;-81
2023/10/04 12:37:39;;;;;;;4.20;2.27;;;25.10;99.30;;;;;;5088805;28;20255;-81
2023/10/04 12:40:16;;;;;;;2.83;2.33;;;25.00;99.20;;;;;;5089484;28;20973;-76
2023/10/04 12:42:41;;;;;;;2.43;2.00;;;25.10;99.00;;;;;;5084855;28;20563;-81
2023/10/04 12:45:10;;;;;;;3.03;1.83;;;25.20;99.00;;;;;;5093229;28;21046;-76
2023/10/04 12:47:36;;;;;;;3.17;2.17;;;25.20;98.80;;;;;;5086212;28;20183;-81
2023/10/04 12:50:03;;;;;;;2.03;1.50;;;25.20;98.80;;;;;;5083319;28;20531;-76
2023/10/04 12:52:30;;;;;;;2.20;2.00;;;25.20;98.80;;;;;;5087078;28;20496;-75
2023/10/04 12:54:57;;;;;;;3.13;2.10;;;25.20;98.90;;;;;;5090167;28;20744;-75
2023/10/04 12:57:23;;;;;;;2.87;2.20;;;25.20;99.00;;;;;;5090934;28;20555;-81